createdAt,value
2017-03-22T00:00:22.943Z,0
2017-03-22T00:01:03.469Z,0
2017-03-22T00:01:43.991Z,0
2017-03-22T00:02:24.527Z,0
2017-03-22T00:03:05.060Z,0
2017-03-22T00:03:45.571Z,0
2017-03-22T00:04:26.094Z,0
2017-03-22T00:05:06.624Z,0
2017-03-22T00:05:47.157Z,0
2017-03-22T00:06:27.672Z,0
2017-03-22T00:07:08.196Z,0
2017-03-22T00:07:48.715Z,0
2017-03-22T00:08:29.236Z,0
2017-03-22T00:09:09.749Z,0
2017-03-22T00:09:50.264Z,0
2017-03-22T00:10:30.795Z,0
2017-03-22T00:11:11.304Z,0
2017-03-22T00:11:51.821Z,0
2017-03-22T00:12:32.346Z,0
2017-03-22T00:13:12.870Z,0
2017-03-22T00:13:53.407Z,0
2017-03-22T00:14:33.925Z,0
2017-03-22T00:15:14.451Z,0
2017-03-22T00:15:54.974Z,0
2017-03-22T00:16:35.475Z,0
2017-03-22T00:17:15.997Z,0
2017-03-22T00:17:56.511Z,0
2017-03-22T00:18:37.042Z,0
2017-03-22T00:19:17.574Z,0
2017-03-22T00:19:58.099Z,0
2017-03-22T00:20:38.617Z,0
2017-03-22T00:21:19.142Z,0
2017-03-22T00:21:59.650Z,0
2017-03-22T00:22:40.154Z,0
2017-03-22T00:23:20.682Z,0
2017-03-22T00:24:01.203Z,0
2017-03-22T00:24:41.719Z,0
2017-03-22T00:25:22.238Z,0
2017-03-22T00:26:02.740Z,0
2017-03-22T00:26:43.260Z,0
2017-03-22T00:27:23.762Z,0
2017-03-22T00:28:04.302Z,0
2017-03-22T00:28:44.798Z,0
2017-03-22T00:29:25.327Z,0
2017-03-22T00:30:05.855Z,0
2017-03-22T00:30:46.392Z,0
2017-03-22T00:31:26.909Z,0
2017-03-22T00:32:07.444Z,0
2017-03-22T00:32:47.971Z,0
2017-03-22T00:33:28.501Z,0
2017-03-22T00:34:09.028Z,0
2017-03-22T00:34:49.545Z,0
2017-03-22T00:35:30.076Z,0
2017-03-22T00:36:10.608Z,0
2017-03-22T00:36:51.121Z,0
2017-03-22T00:37:31.650Z,0
2017-03-22T00:38:12.170Z,0
2017-03-22T00:38:52.689Z,0
2017-03-22T00:39:33.212Z,0
2017-03-22T00:40:13.724Z,0
2017-03-22T00:40:54.254Z,0
2017-03-22T00:41:34.765Z,0
2017-03-22T00:42:15.291Z,0
2017-03-22T00:42:55.811Z,0
2017-03-22T00:43:36.310Z,0
2017-03-22T00:44:16.842Z,0
2017-03-22T00:44:57.374Z,0
2017-03-22T00:45:37.903Z,0
2017-03-22T00:46:18.431Z,0
2017-03-22T00:46:58.932Z,0
2017-03-22T00:47:39.459Z,0
2017-03-22T00:48:19.963Z,0
2017-03-22T00:49:00.485Z,0
2017-03-22T00:49:41.006Z,0
2017-03-22T00:50:21.531Z,0
2017-03-22T00:51:02.067Z,0
2017-03-22T00:51:42.585Z,0
2017-03-22T00:52:23.124Z,0
2017-03-22T00:53:03.623Z,0
2017-03-22T00:53:44.133Z,0
2017-03-22T00:54:24.645Z,0
2017-03-22T00:55:05.167Z,0
2017-03-22T00:55:45.668Z,0
2017-03-22T00:56:26.182Z,0
2017-03-22T00:57:06.693Z,0
2017-03-22T00:57:47.208Z,0
2017-03-22T00:58:27.728Z,0
2017-03-22T00:59:08.243Z,0
2017-03-22T00:59:48.768Z,0
2017-03-22T01:00:29.286Z,0
2017-03-22T01:01:09.799Z,0
2017-03-22T01:01:50.285Z,0
2017-03-22T01:02:30.796Z,0
2017-03-22T01:03:11.315Z,0
2017-03-22T01:03:51.835Z,0
2017-03-22T01:04:32.342Z,0
2017-03-22T01:05:12.857Z,0
2017-03-22T01:05:53.363Z,0
2017-03-22T01:06:33.888Z,0
2017-03-22T01:07:14.406Z,0
2017-03-22T01:07:54.938Z,0
2017-03-22T01:08:35.454Z,0
2017-03-22T01:09:15.987Z,0
2017-03-22T01:09:56.509Z,0
2017-03-22T01:10:37.017Z,0
2017-03-22T01:11:17.526Z,0
2017-03-22T01:11:58.057Z,0
2017-03-22T01:12:38.573Z,0
2017-03-22T01:13:19.087Z,0
2017-03-22T01:13:59.608Z,0
2017-03-22T01:14:40.113Z,0
2017-03-22T01:15:20.633Z,0
2017-03-22T01:16:01.202Z,0
2017-03-22T01:16:41.731Z,0
2017-03-22T01:17:22.262Z,0
2017-03-22T01:18:02.766Z,0
2017-03-22T01:18:43.285Z,0
2017-03-22T01:19:23.829Z,0
2017-03-22T01:20:04.330Z,0
2017-03-22T01:20:44.863Z,0
2017-03-22T01:21:25.377Z,0
2017-03-22T01:22:05.887Z,0
2017-03-22T01:22:46.404Z,0
2017-03-22T01:23:26.927Z,0
2017-03-22T01:24:07.463Z,0
2017-03-22T01:24:47.982Z,0
2017-03-22T01:25:28.504Z,0
2017-03-22T01:26:09.037Z,0
2017-03-22T01:26:49.560Z,0
2017-03-22T01:27:30.086Z,0
2017-03-22T01:28:10.606Z,0
2017-03-22T01:28:51.098Z,0
2017-03-22T01:29:31.598Z,0
2017-03-22T01:30:12.113Z,0
2017-03-22T01:30:52.637Z,0
2017-03-22T01:31:33.171Z,0
2017-03-22T01:32:13.702Z,0
2017-03-22T01:32:54.227Z,0
2017-03-22T01:33:34.755Z,0
2017-03-22T01:34:15.262Z,0
2017-03-22T01:34:55.804Z,0
2017-03-22T01:35:36.288Z,0
2017-03-22T01:36:16.797Z,0
2017-03-22T01:36:57.303Z,0
2017-03-22T01:37:37.808Z,0
2017-03-22T01:38:18.314Z,0
2017-03-22T01:38:58.811Z,0
2017-03-22T01:39:39.328Z,0
2017-03-22T01:40:19.840Z,0
2017-03-22T01:41:00.347Z,0
2017-03-22T01:41:40.882Z,0
2017-03-22T01:42:21.380Z,0
2017-03-22T01:43:01.889Z,0
2017-03-22T01:43:42.414Z,0
2017-03-22T01:44:22.922Z,0
2017-03-22T01:45:03.447Z,0
2017-03-22T01:45:43.966Z,0
2017-03-22T01:46:24.487Z,0
2017-03-22T01:47:05.018Z,0
2017-03-22T01:47:45.533Z,0
2017-03-22T01:48:26.068Z,0
2017-03-22T01:49:06.583Z,0
2017-03-22T01:49:47.100Z,0
2017-03-22T01:50:27.624Z,0
2017-03-22T01:51:08.132Z,0
2017-03-22T01:51:48.635Z,0
2017-03-22T01:52:29.165Z,0
2017-03-22T01:53:09.671Z,0
2017-03-22T01:53:50.175Z,0
2017-03-22T01:54:30.681Z,0
2017-03-22T01:55:11.195Z,0
2017-03-22T01:55:51.726Z,0
2017-03-22T01:56:32.250Z,0
2017-03-22T01:57:12.738Z,0
2017-03-22T01:57:53.254Z,0
2017-03-22T01:58:33.775Z,0
2017-03-22T01:59:14.306Z,0
2017-03-22T01:59:54.817Z,0
2017-03-22T02:00:35.335Z,0
2017-03-22T02:01:15.845Z,0
2017-03-22T02:01:56.402Z,0
2017-03-22T02:02:36.915Z,0
2017-03-22T02:03:17.434Z,0
2017-03-22T02:03:57.960Z,0
2017-03-22T02:04:38.491Z,0
2017-03-22T02:05:19.018Z,0
2017-03-22T02:05:59.568Z,0
2017-03-22T02:06:40.094Z,0
2017-03-22T02:07:20.598Z,0
2017-03-22T02:08:01.131Z,0
2017-03-22T02:08:41.673Z,0
2017-03-22T02:09:22.217Z,0
2017-03-22T02:10:02.727Z,0
2017-03-22T02:10:43.254Z,0
2017-03-22T02:11:23.791Z,0
2017-03-22T02:12:04.312Z,0
2017-03-22T02:12:44.819Z,0
2017-03-22T02:13:25.354Z,0
2017-03-22T02:14:05.875Z,0
2017-03-22T02:14:46.378Z,0
2017-03-22T02:15:26.895Z,0
2017-03-22T02:16:07.411Z,0
2017-03-22T02:16:47.926Z,0
2017-03-22T02:17:28.448Z,0
2017-03-22T02:18:08.989Z,0
2017-03-22T02:18:49.519Z,0
2017-03-22T02:19:30.020Z,0
2017-03-22T02:20:10.543Z,0
2017-03-22T02:20:51.071Z,0
2017-03-22T02:21:31.581Z,0
2017-03-22T02:22:12.090Z,0
2017-03-22T02:22:52.624Z,0
2017-03-22T02:23:33.156Z,0
2017-03-22T02:24:13.655Z,0
2017-03-22T02:24:54.179Z,0
2017-03-22T02:25:34.720Z,0
2017-03-22T02:26:15.259Z,0
2017-03-22T02:26:55.781Z,0
2017-03-22T02:27:36.296Z,0
2017-03-22T02:28:16.834Z,0
2017-03-22T02:28:57.366Z,0
2017-03-22T02:29:37.900Z,0
2017-03-22T02:30:18.416Z,0
2017-03-22T02:30:58.952Z,0
2017-03-22T02:31:39.497Z,0
2017-03-22T02:32:19.947Z,0
2017-03-22T02:33:00.459Z,0
2017-03-22T02:33:40.946Z,0
2017-03-22T02:34:21.507Z,0
2017-03-22T02:35:02.007Z,0
2017-03-22T02:35:42.533Z,0
2017-03-22T02:36:23.062Z,0
2017-03-22T02:37:10.427Z,0
2017-03-22T02:37:51.007Z,0
2017-03-22T02:38:31.490Z,0
2017-03-22T02:39:12.015Z,0
2017-03-22T02:39:52.556Z,0
2017-03-22T02:40:33.078Z,0
2017-03-22T02:41:13.599Z,0
2017-03-22T02:41:54.162Z,0
2017-03-22T02:42:34.702Z,0
2017-03-22T02:43:15.265Z,0
2017-03-22T02:43:55.789Z,0
2017-03-22T02:44:36.329Z,0
2017-03-22T02:45:16.870Z,0
2017-03-22T02:45:57.388Z,0
2017-03-22T02:46:37.903Z,0
2017-03-22T02:47:18.419Z,0
2017-03-22T02:47:58.994Z,0
2017-03-22T02:48:39.517Z,0
2017-03-22T02:49:20.011Z,0
2017-03-22T02:50:00.509Z,0
2017-03-22T02:50:41.027Z,0
2017-03-22T02:51:21.547Z,0
2017-03-22T02:52:02.026Z,0
2017-03-22T02:52:42.513Z,0
2017-03-22T02:53:23.020Z,0
2017-03-22T02:54:03.514Z,0
2017-03-22T02:54:44.010Z,0
2017-03-22T02:55:24.530Z,0
2017-03-22T02:56:05.081Z,0
2017-03-22T02:56:45.579Z,0
2017-03-22T02:57:26.109Z,0
2017-03-22T02:58:06.692Z,0
2017-03-22T02:58:47.225Z,0
2017-03-22T02:59:27.797Z,0
2017-03-22T03:00:08.340Z,0
2017-03-22T03:00:48.864Z,0
2017-03-22T03:01:29.409Z,0
2017-03-22T03:02:09.909Z,0
2017-03-22T03:02:50.409Z,0
2017-03-22T03:03:30.913Z,0
2017-03-22T03:04:11.404Z,0
2017-03-22T03:04:52.027Z,0
2017-03-22T03:05:32.568Z,0
2017-03-22T03:06:13.108Z,0
2017-03-22T03:06:53.621Z,0
2017-03-22T03:07:34.194Z,0
2017-03-22T03:08:14.737Z,0
2017-03-22T03:08:55.276Z,0
2017-03-22T03:09:35.808Z,0
2017-03-22T03:10:16.291Z,0
2017-03-22T03:10:56.825Z,0
2017-03-22T03:11:37.369Z,0
2017-03-22T03:12:17.907Z,0
2017-03-22T03:12:58.434Z,0
2017-03-22T03:13:38.991Z,0
2017-03-22T03:14:19.562Z,0
2017-03-22T03:15:00.106Z,0
2017-03-22T03:15:40.617Z,0
2017-03-22T03:16:21.137Z,0
2017-03-22T03:17:01.657Z,0
2017-03-22T03:17:42.160Z,0
2017-03-22T03:18:22.677Z,0
2017-03-22T03:19:03.217Z,0
2017-03-22T03:19:43.735Z,0
2017-03-22T03:20:24.212Z,0
2017-03-22T03:21:04.696Z,0
2017-03-22T03:21:45.234Z,0
2017-03-22T03:22:25.768Z,0
2017-03-22T03:23:06.299Z,0
2017-03-22T03:23:46.838Z,0
2017-03-22T03:24:27.313Z,0
2017-03-22T03:25:07.892Z,0
2017-03-22T03:25:48.420Z,0
2017-03-22T03:26:28.927Z,0
2017-03-22T03:27:09.453Z,0
2017-03-22T03:27:49.993Z,0
2017-03-22T03:28:30.496Z,0
2017-03-22T03:29:11.036Z,0
2017-03-22T03:29:51.520Z,0
2017-03-22T03:30:32.037Z,0
2017-03-22T03:31:12.546Z,0
2017-03-22T03:31:53.063Z,0
2017-03-22T03:32:33.543Z,0
2017-03-22T03:33:14.066Z,0
2017-03-22T03:33:54.551Z,0
2017-03-22T03:34:35.050Z,0
2017-03-22T03:35:15.563Z,0
2017-03-22T03:35:56.098Z,0
2017-03-22T03:36:36.639Z,0
2017-03-22T03:37:17.162Z,0
2017-03-22T03:37:57.695Z,0
2017-03-22T03:38:38.214Z,0
2017-03-22T03:39:18.750Z,0
2017-03-22T03:39:59.314Z,0
2017-03-22T03:40:39.833Z,0
2017-03-22T03:41:20.371Z,0
2017-03-22T03:42:00.891Z,0
2017-03-22T03:42:41.458Z,0
2017-03-22T03:43:21.969Z,0
2017-03-22T03:44:02.470Z,0
2017-03-22T03:44:42.980Z,0
2017-03-22T03:45:23.484Z,0
2017-03-22T03:46:04.011Z,0
2017-03-22T03:46:44.537Z,0
2017-03-22T03:47:25.077Z,0
2017-03-22T03:48:05.627Z,0
2017-03-22T03:48:46.139Z,0
2017-03-22T03:49:26.635Z,0
2017-03-22T03:50:07.141Z,0
2017-03-22T03:50:47.679Z,0
2017-03-22T03:51:28.267Z,0
2017-03-22T03:52:08.816Z,0
2017-03-22T03:52:49.370Z,0
2017-03-22T03:53:29.928Z,0
2017-03-22T03:54:10.480Z,0
2017-03-22T03:54:50.988Z,0
2017-03-22T03:55:31.520Z,0
2017-03-22T03:56:12.013Z,0
2017-03-22T03:56:52.529Z,0
2017-03-22T03:57:33.082Z,0
2017-03-22T03:58:13.593Z,0
2017-03-22T03:58:54.145Z,0
2017-03-22T03:59:34.691Z,0
2017-03-22T04:00:15.242Z,0
2017-03-22T04:00:55.794Z,0
2017-03-22T04:01:36.370Z,0
2017-03-22T04:02:16.882Z,0
2017-03-22T04:02:57.443Z,0
2017-03-22T04:03:37.937Z,0
2017-03-22T04:04:18.422Z,0
2017-03-22T04:04:58.905Z,0
2017-03-22T04:05:39.444Z,0
2017-03-22T04:06:19.913Z,0
2017-03-22T04:07:00.430Z,0
2017-03-22T04:07:41.006Z,0
2017-03-22T04:08:21.529Z,0
2017-03-22T04:09:02.064Z,0
2017-03-22T04:09:42.571Z,0
2017-03-22T04:10:23.099Z,0
2017-03-22T04:11:03.599Z,0
2017-03-22T04:11:44.116Z,0
2017-03-22T04:12:24.645Z,0
2017-03-22T04:13:05.177Z,0
2017-03-22T04:13:45.698Z,0
2017-03-22T04:14:26.216Z,0
2017-03-22T04:15:06.739Z,0
2017-03-22T04:15:47.277Z,0
2017-03-22T04:16:27.800Z,0
2017-03-22T04:17:08.333Z,0
2017-03-22T04:17:48.857Z,0
2017-03-22T04:18:29.396Z,0
2017-03-22T04:19:09.931Z,0
2017-03-22T04:19:50.447Z,0
2017-03-22T04:20:30.962Z,0
2017-03-22T04:21:11.473Z,0
2017-03-22T04:21:52.018Z,0
2017-03-22T04:22:32.536Z,0
2017-03-22T04:23:13.045Z,0
2017-03-22T04:23:53.560Z,0
2017-03-22T04:24:34.075Z,0
2017-03-22T04:25:14.711Z,0
2017-03-22T04:25:55.234Z,0
2017-03-22T04:26:35.751Z,0
2017-03-22T04:27:16.329Z,0
2017-03-22T04:27:56.854Z,0
2017-03-22T04:28:37.402Z,0
2017-03-22T04:29:17.915Z,0
2017-03-22T04:29:58.413Z,0
2017-03-22T04:30:38.934Z,0
2017-03-22T04:31:19.447Z,0
2017-03-22T04:31:59.966Z,0
2017-03-22T04:32:40.466Z,0
2017-03-22T04:33:20.992Z,0
2017-03-22T04:34:01.520Z,0
2017-03-22T04:34:42.026Z,0
2017-03-22T04:35:22.560Z,0
2017-03-22T04:36:03.090Z,0
2017-03-22T04:36:43.618Z,0
2017-03-22T04:37:24.112Z,0
2017-03-22T04:38:04.659Z,0
2017-03-22T04:38:45.192Z,0
2017-03-22T04:39:25.712Z,0
2017-03-22T04:40:06.242Z,0
2017-03-22T04:40:46.767Z,0
2017-03-22T04:41:27.282Z,0
2017-03-22T04:42:07.816Z,0
2017-03-22T04:42:48.344Z,0
2017-03-22T04:43:28.859Z,0
2017-03-22T04:44:09.485Z,0
2017-03-22T04:44:50.007Z,0
2017-03-22T04:45:30.543Z,0
2017-03-22T04:46:11.118Z,0
2017-03-22T04:46:51.640Z,0
2017-03-22T04:47:32.167Z,0
2017-03-22T04:48:12.729Z,0
2017-03-22T04:48:54.213Z,0
2017-03-22T04:49:34.795Z,0
2017-03-22T04:50:15.360Z,0
2017-03-22T04:50:55.934Z,0
2017-03-22T04:51:36.538Z,0
2017-03-22T04:52:17.058Z,0
2017-03-22T04:52:57.596Z,0
2017-03-22T04:53:38.150Z,0
2017-03-22T04:54:18.774Z,0
2017-03-22T04:57:33.880Z,0
2017-03-22T04:58:14.341Z,0
2017-03-22T04:58:54.894Z,0
2017-03-22T04:59:35.431Z,0
2017-03-22T05:00:16.554Z,0
2017-03-22T05:00:57.044Z,0
2017-03-22T05:01:37.638Z,0
2017-03-22T05:02:18.253Z,0
2017-03-22T05:02:59.290Z,0
2017-03-22T05:03:41.952Z,0
2017-03-22T05:04:22.670Z,0
2017-03-22T05:05:03.387Z,0
2017-03-22T05:05:44.045Z,0
2017-03-22T05:06:24.544Z,0
2017-03-22T05:07:05.085Z,0
2017-03-22T05:07:45.619Z,0
2017-03-22T05:08:26.119Z,0
2017-03-22T05:09:06.784Z,0
2017-03-22T05:09:47.334Z,0
2017-03-22T05:10:28.022Z,0
2017-03-22T05:11:08.600Z,0
2017-03-22T05:11:49.134Z,0
2017-03-22T05:12:29.670Z,0
2017-03-22T05:13:10.245Z,0
2017-03-22T05:13:51.202Z,0
2017-03-22T05:14:31.750Z,0
2017-03-22T05:15:12.346Z,0
2017-03-22T05:15:52.818Z,0
2017-03-22T05:16:33.347Z,0
2017-03-22T05:17:13.868Z,0
2017-03-22T05:17:54.390Z,0
2017-03-22T05:18:34.937Z,0
2017-03-22T05:19:15.514Z,0
2017-03-22T05:19:56.935Z,0
2017-03-22T05:20:37.574Z,0
2017-03-22T05:21:18.029Z,0
2017-03-22T05:21:58.662Z,0
2017-03-22T05:22:39.180Z,0
2017-03-22T05:23:19.777Z,0
2017-03-22T05:24:00.326Z,0
2017-03-22T05:24:40.893Z,0
2017-03-22T05:25:21.357Z,0
2017-03-22T05:26:01.875Z,0
2017-03-22T05:26:42.389Z,0
2017-03-22T05:27:22.956Z,0
2017-03-22T05:28:03.507Z,0
2017-03-22T05:28:44.059Z,0
2017-03-22T05:29:24.615Z,0
2017-03-22T05:30:05.180Z,0
2017-03-22T05:30:45.817Z,0
2017-03-22T05:31:26.404Z,0
2017-03-22T05:32:06.998Z,5
2017-03-22T05:32:47.641Z,5
2017-03-22T05:33:28.268Z,5
2017-03-22T05:34:08.842Z,5
2017-03-22T05:34:49.331Z,5
2017-03-22T05:35:29.874Z,5
2017-03-22T05:36:10.435Z,5
2017-03-22T05:36:50.933Z,5
2017-03-22T05:37:31.460Z,5
2017-03-22T05:38:11.938Z,5
2017-03-22T05:38:52.429Z,5
2017-03-22T05:39:32.960Z,5
2017-03-22T05:40:13.510Z,5
2017-03-22T05:40:54.113Z,10
2017-03-22T05:41:34.607Z,10
2017-03-22T05:42:15.109Z,10
2017-03-22T05:42:55.645Z,10
2017-03-22T05:43:36.169Z,10
2017-03-22T05:44:16.713Z,10
2017-03-22T05:44:58.116Z,10
2017-03-22T05:45:38.650Z,15
2017-03-22T05:46:19.213Z,15
2017-03-22T05:46:59.773Z,15
2017-03-22T05:47:40.383Z,15
2017-03-22T05:48:20.937Z,15
2017-03-22T05:49:01.618Z,15
2017-03-22T05:49:42.865Z,15
2017-03-22T05:50:23.440Z,15
2017-03-22T05:51:04.006Z,15
2017-03-22T05:51:44.562Z,20
2017-03-22T05:52:25.128Z,20
2017-03-22T05:53:05.672Z,20
2017-03-22T05:53:46.264Z,20
2017-03-22T05:54:26.821Z,20
2017-03-22T05:55:07.407Z,25
2017-03-22T05:55:47.994Z,25
2017-03-22T05:56:28.564Z,25
2017-03-22T05:57:09.135Z,25
2017-03-22T05:57:49.819Z,25
2017-03-22T05:58:30.464Z,30
2017-03-22T05:59:11.043Z,30
2017-03-22T05:59:51.864Z,30
2017-03-22T06:00:32.481Z,30
2017-03-22T06:01:13.068Z,35
2017-03-22T06:01:53.658Z,35
2017-03-22T06:02:34.188Z,35
2017-03-22T06:03:14.871Z,35
2017-03-22T06:03:55.380Z,35
2017-03-22T06:04:35.911Z,40
2017-03-22T06:05:16.424Z,40
2017-03-22T06:05:56.963Z,40
2017-03-22T06:06:37.817Z,45
2017-03-22T06:07:18.355Z,45
2017-03-22T06:07:58.930Z,45
2017-03-22T06:08:39.680Z,50
2017-03-22T06:09:20.258Z,50
2017-03-22T06:10:01.073Z,50
2017-03-22T06:10:41.698Z,50
2017-03-22T06:11:22.302Z,55
2017-03-22T06:12:03.011Z,55
2017-03-22T06:12:43.515Z,55
2017-03-22T06:13:24.072Z,55
2017-03-22T06:14:04.562Z,60
2017-03-22T06:14:45.106Z,60
2017-03-22T06:15:25.589Z,60
2017-03-22T06:16:06.094Z,60
2017-03-22T06:16:46.655Z,60
2017-03-22T06:17:27.207Z,65
2017-03-22T06:18:07.722Z,65
2017-03-22T06:18:48.222Z,65
2017-03-22T06:19:28.729Z,65
2017-03-22T06:20:10.112Z,65
2017-03-22T06:20:50.648Z,70
2017-03-22T06:21:31.165Z,70
2017-03-22T06:22:11.687Z,75
2017-03-22T06:22:52.200Z,75
2017-03-22T06:23:32.734Z,80
2017-03-22T06:24:13.238Z,80
2017-03-22T06:24:53.755Z,85
2017-03-22T06:25:34.271Z,85
2017-03-22T06:26:14.815Z,85
2017-03-22T06:26:55.317Z,90
2017-03-22T06:27:35.830Z,90
2017-03-22T06:28:16.332Z,90
2017-03-22T06:28:56.848Z,90
2017-03-22T06:29:37.371Z,95
2017-03-22T06:30:17.887Z,95
2017-03-22T06:30:58.403Z,95
2017-03-22T06:31:38.938Z,105
2017-03-22T06:32:19.467Z,100
2017-03-22T06:32:59.969Z,100
2017-03-22T06:33:40.493Z,100
2017-03-22T06:34:21.006Z,100
2017-03-22T06:35:01.494Z,95
2017-03-22T06:35:42.629Z,95
2017-03-22T06:36:23.128Z,95
2017-03-22T06:37:03.632Z,95
2017-03-22T06:37:45.095Z,95
2017-03-22T06:38:25.605Z,95
2017-03-22T06:39:06.106Z,95
2017-03-22T06:39:46.594Z,95
2017-03-22T06:40:27.113Z,95
2017-03-22T06:41:07.626Z,90
2017-03-22T06:41:48.144Z,95
2017-03-22T06:42:28.655Z,95
2017-03-22T06:43:09.174Z,100
2017-03-22T06:43:49.687Z,105
2017-03-22T06:44:30.224Z,105
2017-03-22T06:45:10.701Z,110
2017-03-22T06:45:51.224Z,110
2017-03-22T06:46:31.718Z,110
2017-03-22T06:47:12.240Z,110
2017-03-22T06:47:52.727Z,115
2017-03-22T06:48:34.118Z,120
2017-03-22T06:49:14.763Z,125
2017-03-22T06:49:55.285Z,130
2017-03-22T06:50:35.799Z,130
2017-03-22T06:51:16.311Z,135
2017-03-22T06:51:56.822Z,135
2017-03-22T06:52:37.341Z,140
2017-03-22T06:53:17.859Z,145
2017-03-22T06:53:58.371Z,145
2017-03-22T06:54:38.889Z,145
2017-03-22T06:55:19.399Z,145
2017-03-22T06:55:59.911Z,150
2017-03-22T06:56:40.426Z,150
2017-03-22T06:57:20.936Z,155
2017-03-22T06:58:01.464Z,160
2017-03-22T06:58:41.946Z,160
2017-03-22T06:59:22.490Z,165
2017-03-22T07:00:02.992Z,165
2017-03-22T07:00:43.506Z,170
2017-03-22T07:01:24.024Z,170
2017-03-22T07:02:04.569Z,175
2017-03-22T07:02:45.237Z,180
2017-03-22T07:03:25.914Z,180
2017-03-22T07:04:06.471Z,180
2017-03-22T07:04:46.985Z,180
2017-03-22T07:05:27.495Z,185
2017-03-22T07:06:08.015Z,180
2017-03-22T07:06:48.518Z,185
2017-03-22T07:07:29.047Z,185
2017-03-22T07:08:09.549Z,190
2017-03-22T07:08:50.062Z,180
2017-03-22T07:09:30.610Z,185
2017-03-22T07:10:11.076Z,185
2017-03-22T07:10:51.603Z,185
2017-03-22T07:11:32.138Z,185
2017-03-22T07:12:12.645Z,185
2017-03-22T07:12:53.354Z,185
2017-03-22T07:13:33.913Z,180
2017-03-22T07:14:14.431Z,185
2017-03-22T07:14:55.002Z,180
2017-03-22T07:15:35.517Z,180
2017-03-22T07:16:16.027Z,180
2017-03-22T07:16:56.557Z,180
2017-03-22T07:17:37.065Z,175
2017-03-22T07:18:17.591Z,175
2017-03-22T07:18:58.106Z,170
2017-03-22T07:19:38.598Z,170
2017-03-22T07:20:19.123Z,170
2017-03-22T07:20:59.643Z,170
2017-03-22T07:21:40.164Z,165
2017-03-22T07:22:20.684Z,165
2017-03-22T07:23:01.190Z,165
2017-03-22T07:23:41.696Z,165
2017-03-22T07:24:22.230Z,165
2017-03-22T07:25:02.744Z,165
2017-03-22T07:25:43.234Z,165
2017-03-22T07:26:23.753Z,165
2017-03-22T07:27:04.272Z,165
2017-03-22T07:27:44.785Z,165
2017-03-22T07:28:25.288Z,165
2017-03-22T07:29:05.840Z,170
2017-03-22T07:29:46.342Z,170
2017-03-22T07:30:26.854Z,170
2017-03-22T07:31:07.382Z,170
2017-03-22T07:31:47.904Z,170
2017-03-22T07:32:28.462Z,170
2017-03-22T07:33:08.929Z,170
2017-03-22T07:33:49.440Z,170
2017-03-22T07:34:29.955Z,170
2017-03-22T07:35:10.452Z,165
2017-03-22T07:35:50.958Z,165
2017-03-22T07:36:31.466Z,165
2017-03-22T07:37:11.981Z,170
2017-03-22T07:37:52.490Z,170
2017-03-22T07:38:32.996Z,170
2017-03-22T07:39:13.557Z,170
2017-03-22T07:39:53.993Z,170
2017-03-22T07:40:34.512Z,170
2017-03-22T07:41:15.010Z,170
2017-03-22T07:41:55.541Z,170
2017-03-22T07:42:36.070Z,165
2017-03-22T07:43:16.605Z,160
2017-03-22T07:43:57.118Z,165
2017-03-22T07:44:37.650Z,165
2017-03-22T07:45:18.195Z,170
2017-03-22T07:45:58.695Z,170
2017-03-22T07:46:39.187Z,175
2017-03-22T07:47:19.709Z,175
2017-03-22T07:48:00.230Z,175
2017-03-22T07:48:40.741Z,175
2017-03-22T07:49:21.250Z,175
2017-03-22T07:50:01.751Z,175
2017-03-22T07:50:42.244Z,175
2017-03-22T07:51:22.784Z,175
2017-03-22T07:52:03.274Z,175
2017-03-22T07:52:43.781Z,175
2017-03-22T07:53:24.276Z,180
2017-03-22T07:54:04.805Z,180
2017-03-22T07:54:45.333Z,175
2017-03-22T07:55:25.838Z,180
2017-03-22T07:56:06.335Z,175
2017-03-22T07:56:46.856Z,175
2017-03-22T07:57:27.367Z,175
2017-03-22T07:58:07.885Z,175
2017-03-22T07:58:48.417Z,175
2017-03-22T07:59:28.945Z,180
2017-03-22T08:00:09.431Z,180
2017-03-22T08:00:49.926Z,180
2017-03-22T08:01:30.453Z,180
2017-03-22T08:02:10.966Z,180
2017-03-22T08:02:51.474Z,180
2017-03-22T08:03:32.005Z,180
2017-03-22T08:04:12.513Z,180
2017-03-22T08:04:53.043Z,180
2017-03-22T08:05:33.553Z,180
2017-03-22T08:06:14.050Z,180
2017-03-22T08:06:54.571Z,180
2017-03-22T08:07:35.079Z,180
2017-03-22T08:08:15.609Z,180
2017-03-22T08:08:56.133Z,180
2017-03-22T08:09:36.659Z,180
2017-03-22T08:10:17.167Z,185
2017-03-22T08:10:57.690Z,180
2017-03-22T08:11:38.203Z,185
2017-03-22T08:12:18.696Z,185
2017-03-22T08:12:59.232Z,185
2017-03-22T08:13:39.742Z,185
2017-03-22T08:14:20.270Z,185
2017-03-22T08:15:00.790Z,190
2017-03-22T08:15:41.307Z,190
2017-03-22T08:16:21.813Z,225
2017-03-22T08:17:02.345Z,310
2017-03-22T08:17:42.899Z,380
2017-03-22T08:18:23.352Z,370
2017-03-22T08:19:03.873Z,225
2017-03-22T08:19:44.384Z,230
2017-03-22T08:20:24.903Z,240
2017-03-22T08:21:05.410Z,250
2017-03-22T08:21:45.947Z,265
2017-03-22T08:22:26.478Z,270
2017-03-22T08:23:07.006Z,280
2017-03-22T08:23:47.522Z,330
2017-03-22T08:24:28.027Z,400
2017-03-22T08:25:08.555Z,435
2017-03-22T08:25:49.091Z,425
2017-03-22T08:26:29.613Z,355
2017-03-22T08:27:10.120Z,280
2017-03-22T08:27:50.634Z,270
2017-03-22T08:28:31.134Z,265
2017-03-22T08:29:11.642Z,255
2017-03-22T08:29:52.195Z,255
2017-03-22T08:30:32.724Z,255
2017-03-22T08:31:13.239Z,250
2017-03-22T08:31:53.756Z,265
2017-03-22T08:32:34.287Z,315
2017-03-22T08:33:14.798Z,365
2017-03-22T08:33:55.315Z,400
2017-03-22T08:34:35.826Z,500
2017-03-22T08:35:16.350Z,505
2017-03-22T08:35:56.854Z,400
2017-03-22T08:36:37.384Z,310
2017-03-22T08:37:17.890Z,265
2017-03-22T08:37:58.409Z,265
2017-03-22T08:38:38.933Z,265
2017-03-22T08:39:19.449Z,275
2017-03-22T08:39:59.984Z,290
2017-03-22T08:40:40.504Z,400
2017-03-22T08:41:21.069Z,670
2017-03-22T08:42:01.547Z,960
2017-03-22T08:42:42.036Z,810
2017-03-22T08:43:22.575Z,455
2017-03-22T08:44:03.110Z,345
2017-03-22T08:44:43.614Z,425
2017-03-22T08:45:24.138Z,440
2017-03-22T08:46:04.668Z,410
2017-03-22T08:46:45.180Z,405
2017-03-22T08:47:25.706Z,390
2017-03-22T08:48:06.222Z,400
2017-03-22T08:48:46.754Z,405
2017-03-22T08:49:27.285Z,415
2017-03-22T08:50:07.802Z,420
2017-03-22T08:50:48.319Z,425
2017-03-22T08:51:28.831Z,445
2017-03-22T08:52:09.334Z,455
2017-03-22T08:52:49.861Z,495
2017-03-22T08:53:30.369Z,665
2017-03-22T08:54:10.881Z,940
2017-03-22T08:54:51.398Z,1185
2017-03-22T08:55:31.912Z,1155
2017-03-22T08:56:12.481Z,860
2017-03-22T08:56:53.006Z,585
2017-03-22T08:57:33.545Z,630
2017-03-22T08:58:14.064Z,655
2017-03-22T08:58:55.300Z,515
2017-03-22T08:59:35.817Z,470
2017-03-22T09:00:16.330Z,440
2017-03-22T09:00:56.847Z,410
2017-03-22T09:01:37.380Z,400
2017-03-22T09:02:17.887Z,385
2017-03-22T09:02:58.394Z,375
2017-03-22T09:03:38.903Z,365
2017-03-22T09:04:19.423Z,355
2017-03-22T09:04:59.943Z,350
2017-03-22T09:05:40.509Z,350
2017-03-22T09:06:20.972Z,335
2017-03-22T09:07:01.474Z,325
2017-03-22T09:07:41.982Z,325
2017-03-22T09:08:22.499Z,320
2017-03-22T09:09:03.005Z,315
2017-03-22T09:09:43.521Z,310
2017-03-22T09:10:24.010Z,310
2017-03-22T09:11:04.530Z,315
2017-03-22T09:11:45.041Z,320
2017-03-22T09:12:25.554Z,315
2017-03-22T09:13:06.074Z,310
2017-03-22T09:13:46.602Z,305
2017-03-22T09:14:27.132Z,315
2017-03-22T09:15:07.640Z,315
2017-03-22T09:15:48.153Z,310
2017-03-22T09:16:28.670Z,305
2017-03-22T09:17:09.205Z,300
2017-03-22T09:17:49.722Z,300
2017-03-22T09:18:30.245Z,295
2017-03-22T09:19:10.764Z,290
2017-03-22T09:19:51.304Z,285
2017-03-22T09:20:31.810Z,280
2017-03-22T09:21:12.331Z,280
2017-03-22T09:21:52.845Z,280
2017-03-22T09:22:33.359Z,280
2017-03-22T09:23:13.889Z,280
2017-03-22T09:23:54.416Z,280
2017-03-22T09:24:34.944Z,280
2017-03-22T09:25:15.488Z,280
2017-03-22T09:25:56.016Z,285
2017-03-22T09:26:36.539Z,285
2017-03-22T09:27:17.062Z,285
2017-03-22T09:27:57.590Z,285
2017-03-22T09:28:38.089Z,285
2017-03-22T09:29:18.612Z,285
2017-03-22T09:29:59.141Z,285
2017-03-22T09:30:39.658Z,295
2017-03-22T09:31:20.166Z,300
2017-03-22T09:32:00.696Z,300
2017-03-22T09:32:41.216Z,305
2017-03-22T09:33:21.713Z,310
2017-03-22T09:34:02.236Z,315
2017-03-22T09:34:42.750Z,315
2017-03-22T09:35:23.273Z,315
2017-03-22T09:36:03.803Z,320
2017-03-22T09:36:45.234Z,325
2017-03-22T09:37:25.762Z,330
2017-03-22T09:38:06.278Z,335
2017-03-22T09:38:46.812Z,335
2017-03-22T09:39:27.318Z,330
2017-03-22T09:40:08.480Z,320
2017-03-22T09:40:48.991Z,320
2017-03-22T09:41:29.504Z,330
2017-03-22T09:42:10.015Z,340
2017-03-22T09:42:50.526Z,355
2017-03-22T09:43:31.027Z,370
2017-03-22T09:44:11.538Z,390
2017-03-22T09:44:52.045Z,410
2017-03-22T09:45:32.549Z,435
2017-03-22T09:46:13.076Z,465